Weather History for Maxwell AFB, AL

Change the Weather History Date:

Thursday, April 4, 2013

  Actual Average Record
Temperature  
Mean Temperature 50 °F -  
Max Temperature 54 °F 73 °F 85 °F (2011)
Min Temperature 48 °F 52 °F 44 °F (2004)
Degree Days  
Heating Degree Days 14    
Moisture  
Dew Point 49 °F    
Average Humidity 92    
Maximum Humidity 100    
Minimum Humidity 82    
Precipitation  
Precipitation 0.10 in - - ()
Sea Level Pressure  
Sea Level Pressure 29.95 in    
Wind  
Wind Speed 8 mph (ENE)    
Max Wind Speed 13 mph    
Max Gust Speed 22 mph    
Visibility 9 miles    
Events Rain    
Averages and records for this station are not official NWS values.
T = Trace of Precipitation, MM = Missing Value Source: NWS Daily Summary

Daily Weather History Graph

Daily Weather History Graph

Search for Another Location

Airport:

Trip Planner

Search our weather history database for the weather conditions in past years. The results will help you decide how hot, cold, wet, or windy it might be!

Date:

Astronomy

Apr. 04, 2013 Rise Set
Actual Time 6:29 AM CDT 7:07 PM CDT
Civil Twilight 6:04 AM CDT 7:32 PM CDT
Nautical Twilight 5:35 AM CDT 8:01 PM CDT
Astronomical Twilight 5:05 AM CDT 8:31 PM CDT
Moon 2:36 AM CDT (4/4) 1:43 PM CDT (4/4)
Length of Visible Light 13h 27m
Length of Day
12h 38m
Waning Crescent, 33% of the Moon is Illuminated
Apr 4
Waning Crescent
Apr 10
New
Apr 18
First Quarter
Apr 25
Full
May 2
Last Quarter

Hourly Weather History & Observations

Time (CDT) Temp. Dew Point Humidity Pressure Visibility Wind Dir Wind Speed Gust Speed Precip Events Conditions
12:33 AM 53.6 °F 50.0 °F 88% 30.03 in 10.0 mi NE 6.9 mph - N/A Rain Light Rain
12:58 AM 52.7 °F 49.8 °F 90% 30.02 in 6.0 mi NE 8.1 mph - 0.02 in Rain Light Rain
1:23 AM 51.8 °F 50.0 °F 94% 30.00 in 10.0 mi NE 5.8 mph - N/A Rain Light Rain
1:50 AM 51.8 °F 50.0 °F 94% 30.00 in 10.0 mi ENE 4.6 mph - N/A   Overcast
1:58 AM 52.3 °F 50.7 °F 94% 30.00 in 10.0 mi ENE 10.4 mph - 0.03 in   Overcast
2:08 AM 51.8 °F 50.0 °F 94% 29.99 in 10.0 mi ENE 8.1 mph - N/A   Overcast
2:13 AM 53.6 °F 50.0 °F 88% 29.99 in 10.0 mi ENE 8.1 mph - N/A   Overcast
2:32 AM 53.6 °F 50.0 °F 88% 29.98 in 10.0 mi ENE 10.4 mph - N/A Rain Light Rain
2:58 AM 52.7 °F 50.7 °F 93% 29.97 in 8.0 mi East 6.9 mph - 0.01 in Rain Light Rain
3:18 AM 51.8 °F 50.0 °F 94% 29.95 in 10.0 mi ENE 10.4 mph - N/A Rain Light Rain
3:19 AM 51.8 °F 50.0 °F 94% 29.95 in 10.0 mi ENE 9.2 mph - N/A   Overcast
3:43 AM 51.8 °F 50.0 °F 94% 29.95 in 10.0 mi ENE 9.2 mph - N/A Rain Light Rain
3:58 AM 52.5 °F 50.7 °F 94% 29.96 in 10.0 mi ENE 8.1 mph - 0.01 in   Light Drizzle
3:59 AM 51.8 °F 50.0 °F 94% 29.95 in 10.0 mi ENE 8.1 mph - N/A   Overcast
4:31 AM 51.8 °F 51.8 °F 100% 29.94 in 10.0 mi ENE 11.5 mph - N/A   Light Drizzle
4:36 AM 51.8 °F 51.8 °F 100% 29.94 in 10.0 mi ENE 10.4 mph - N/A   Light Drizzle
4:46 AM 53.6 °F 51.8 °F 94% 29.94 in 10.0 mi ENE 10.4 mph - N/A Rain Light Rain
4:58 AM 52.7 °F 51.1 °F 94% 29.95 in 10.0 mi ENE 8.1 mph - 0.01 in Rain Light Rain
5:03 AM 53.6 °F 51.8 °F 94% 29.94 in 10.0 mi ENE 12.7 mph - N/A   Overcast
5:13 AM 53.6 °F 51.8 °F 94% 29.94 in 10.0 mi ENE 11.5 mph - N/A   Overcast
5:58 AM 53.1 °F 51.1 °F 93% 29.95 in 10.0 mi East 12.7 mph 18.4 mph 0.00 in   Overcast
6:33 AM 53.6 °F 50.0 °F 88% 29.95 in 10.0 mi East 10.4 mph - N/A   Overcast
6:58 AM 53.4 °F 50.5 °F 90% 29.98 in 10.0 mi East 10.4 mph - N/A   Overcast
7:58 AM 53.4 °F 50.5 °F 90% 29.99 in 10.0 mi East 10.4 mph - N/A   Overcast
8:18 AM 53.6 °F 50.0 °F 88% 29.98 in 10.0 mi East 10.4 mph 18.4 mph N/A   Light Drizzle
8:30 AM 53.6 °F 50.0 °F 88% 29.98 in 10.0 mi ENE 9.2 mph - N/A   Overcast
8:58 AM 53.4 °F 49.8 °F 88% 29.99 in 10.0 mi East 10.4 mph - 0.00 in   Overcast
9:58 AM 53.4 °F 49.5 °F 86% 30.00 in 10.0 mi East 10.4 mph 21.9 mph N/A   Overcast
10:26 AM 53.6 °F 50.0 °F 88% 29.99 in 10.0 mi East 11.5 mph - N/A Rain Light Rain
10:47 AM 53.6 °F 50.0 °F 88% 29.99 in 10.0 mi East 12.7 mph - N/A   Overcast
10:58 AM 52.7 °F 49.6 °F 89% 30.00 in 10.0 mi East 10.4 mph - 0.00 in   Overcast
11:58 AM 53.4 °F 49.5 °F 86% 29.99 in 10.0 mi East 10.4 mph - N/A   Overcast
12:58 PM 53.8 °F 49.5 °F 85% 29.97 in 10.0 mi ENE 10.4 mph - N/A   Overcast
1:58 PM 53.6 °F 48.7 °F 84% 29.96 in 10.0 mi East 8.1 mph - N/A   Overcast
2:58 PM 53.4 °F 49.6 °F 87% 29.95 in 10.0 mi ENE 10.4 mph - N/A   Overcast
3:58 PM 53.6 °F 48.2 °F 82% 29.94 in 10.0 mi ENE 8.1 mph - N/A   Overcast
4:03 PM 53.6 °F 50.0 °F 88% 29.93 in 10.0 mi ENE 9.2 mph - N/A   Overcast
4:13 PM 53.6 °F 50.0 °F 88% 29.93 in 10.0 mi ENE 10.4 mph - N/A   Overcast
4:33 PM 53.6 °F 48.2 °F 82% 29.93 in 10.0 mi East 8.1 mph - N/A   Overcast
4:58 PM 52.7 °F 48.7 °F 86% 29.94 in 10.0 mi East 8.1 mph - N/A   Overcast
5:33 PM 51.8 °F 48.2 °F 88% 29.93 in 10.0 mi East 6.9 mph - N/A   Overcast
5:58 PM 52.2 °F 48.4 °F 87% 29.93 in 10.0 mi ENE 10.4 mph - N/A   Overcast
6:11 PM 51.8 °F 48.2 °F 88% 29.93 in 10.0 mi East 8.1 mph - N/A   Light Drizzle
6:21 PM 51.8 °F 48.2 °F 88% 29.93 in 6.0 mi East 9.2 mph - N/A Rain Light Rain
6:28 PM 51.8 °F 50.0 °F 94% 29.93 in 7.0 mi ENE 8.1 mph - N/A   Overcast
6:33 PM 51.8 °F 50.0 °F 94% 29.93 in 8.0 mi NE 6.9 mph - N/A   Overcast
6:37 PM 51.8 °F 50.0 °F 94% 29.93 in 8.0 mi ENE 5.8 mph - N/A   Light Drizzle
6:42 PM 51.8 °F 50.0 °F 94% 29.93 in 7.0 mi ENE 6.9 mph - N/A   Light Drizzle
6:49 PM 51.8 °F 50.0 °F 94% 29.93 in 7.0 mi NE 5.8 mph - N/A   Overcast
6:58 PM 51.1 °F 49.6 °F 95% 29.93 in 6.0 mi NE 6.9 mph - 0.00 in   Overcast
6:59 PM 51.8 °F 50.0 °F 94% 29.92 in 5.0 mi NE 5.8 mph - N/A Rain Light Rain
7:14 PM 50.0 °F 50.0 °F 100% 29.91 in 6.0 mi NE 10.4 mph - N/A   Overcast
7:16 PM 50.0 °F 50.0 °F 100% 29.91 in 7.0 mi ENE 9.2 mph - N/A Rain Light Rain
7:21 PM 50.0 °F 50.0 °F 100% 29.91 in 8.0 mi NE 9.2 mph - N/A   Light Drizzle
7:26 PM 50.0 °F 50.0 °F 100% 29.91 in 8.0 mi NE 8.1 mph - N/A   Light Drizzle
7:28 PM 50.0 °F 50.0 °F 100% 29.91 in 8.0 mi NE 6.9 mph - N/A   Overcast
7:38 PM 50.0 °F 50.0 °F 100% 29.92 in 9.0 mi NE 9.2 mph - N/A   Overcast
7:58 PM 50.5 °F 49.1 °F 95% 29.94 in 10.0 mi NE 6.9 mph - 0.01 in   Overcast
8:13 PM 50.0 °F 50.0 °F 100% 29.92 in 10.0 mi ENE 8.1 mph - N/A   Overcast
8:58 PM 50.4 °F 48.7 °F 94% 29.95 in 10.0 mi NE 6.9 mph - N/A   Overcast
9:03 PM 50.0 °F 48.2 °F 94% 29.94 in 10.0 mi NE 6.9 mph - N/A   Overcast
9:13 PM 50.0 °F 48.2 °F 94% 29.94 in 10.0 mi NE 6.9 mph - N/A   Overcast
9:19 PM 50.0 °F 48.2 °F 94% 29.94 in 10.0 mi NNE 8.1 mph - N/A Rain Light Rain
9:34 PM 50.0 °F 48.2 °F 94% 29.95 in 9.0 mi NE 6.9 mph - N/A Rain Light Rain
9:44 PM 50.0 °F 48.2 °F 94% 29.95 in 10.0 mi NE 5.8 mph - N/A   Overcast
9:59 PM 49.8 °F 48.4 °F 95% 29.96 in 10.0 mi ENE 4.6 mph - 0.01 in   Overcast
10:02 PM 50.0 °F 48.2 °F 94% 29.95 in 10.0 mi ENE 5.8 mph - N/A   Light Drizzle
10:13 PM 50.0 °F 48.2 °F 94% 29.95 in 10.0 mi ENE 6.9 mph - N/A   Light Drizzle
10:14 PM 50.0 °F 48.2 °F 94% 29.95 in 10.0 mi ENE 5.8 mph - N/A   Overcast
10:19 PM 50.0 °F 48.2 °F 94% 29.95 in 10.0 mi ENE 6.9 mph - N/A   Overcast
10:24 PM 50.0 °F 48.2 °F 94% 29.95 in 10.0 mi ENE 5.8 mph - N/A   Overcast
10:29 PM 50.0 °F 48.2 °F 94% 29.95 in 10.0 mi ENE 8.1 mph - N/A   Overcast
10:49 PM 50.0 °F 48.2 °F 94% 29.94 in 10.0 mi NE 5.8 mph - N/A   Overcast
10:58 PM 49.5 °F 47.8 °F 94% 29.95 in 10.0 mi NE 5.8 mph - 0.00 in   Overcast
10:59 PM 50.0 °F 48.2 °F 94% 29.94 in 10.0 mi NE 5.8 mph - N/A Rain Light Rain
11:04 PM 50.0 °F 48.2 °F 94% 29.95 in 10.0 mi NE 5.8 mph - N/A Rain Light Rain
11:07 PM 50.0 °F 48.2 °F 94% 29.94 in 10.0 mi NE 6.9 mph - N/A   Overcast
11:33 PM 48.2 °F 46.4 °F 93% 29.95 in 10.0 mi NE 8.1 mph - N/A Rain Light Rain
11:43 PM 48.2 °F 46.4 °F 93% 29.95 in 10.0 mi NE 9.2 mph - N/A   Overcast
11:48 PM 48.2 °F 46.4 °F 93% 29.95 in 10.0 mi NE 8.1 mph - N/A   Overcast
11:58 PM 48.2 °F 46.4 °F 93% 29.96 in 10.0 mi NE 6.9 mph - 0.00 in   Overcast